sensor_id;sensor_type;location;lat;lon;timestamp;P1;durP1;ratioP1;P2;durP2;ratioP2
23506;SDS011;11930;53.076;18.250;2024-02-26T00:01:01;122.73;;;36.47;;
23506;SDS011;11930;53.076;18.250;2024-02-26T00:03:47;118.67;;;34.40;;
23506;SDS011;11930;53.076;18.250;2024-02-26T00:06:14;134.70;;;37.77;;
23506;SDS011;11930;53.076;18.250;2024-02-26T00:08:40;102.40;;;34.43;;
23506;SDS011;11930;53.076;18.250;2024-02-26T00:11:06;98.73;;;35.70;;
23506;SDS011;11930;53.076;18.250;2024-02-26T00:13:32;102.17;;;33.40;;
23506;SDS011;11930;53.076;18.250;2024-02-26T00:15:58;87.83;;;30.97;;
23506;SDS011;11930;53.076;18.250;2024-02-26T00:18:24;91.83;;;32.43;;
23506;SDS011;11930;53.076;18.250;2024-02-26T00:20:51;111.07;;;34.37;;
23506;SDS011;11930;53.076;18.250;2024-02-26T00:23:17;83.23;;;28.13;;
23506;SDS011;11930;53.076;18.250;2024-02-26T00:25:43;74.17;;;25.13;;
23506;SDS011;11930;53.076;18.250;2024-02-26T00:28:10;71.50;;;25.83;;
23506;SDS011;11930;53.076;18.250;2024-02-26T00:30:36;68.77;;;24.53;;
23506;SDS011;11930;53.076;18.250;2024-02-26T00:33:02;59.03;;;21.70;;
23506;SDS011;11930;53.076;18.250;2024-02-26T00:35:29;56.23;;;21.87;;
23506;SDS011;11930;53.076;18.250;2024-02-26T00:37:55;49.57;;;20.67;;
23506;SDS011;11930;53.076;18.250;2024-02-26T00:40:21;58.47;;;21.13;;
23506;SDS011;11930;53.076;18.250;2024-02-26T00:42:47;40.90;;;18.30;;
23506;SDS011;11930;53.076;18.250;2024-02-26T00:45:13;50.60;;;20.60;;
23506;SDS011;11930;53.076;18.250;2024-02-26T00:47:41;53.43;;;18.93;;
23506;SDS011;11930;53.076;18.250;2024-02-26T00:50:08;52.07;;;18.63;;
23506;SDS011;11930;53.076;18.250;2024-02-26T00:52:34;41.93;;;18.13;;
23506;SDS011;11930;53.076;18.250;2024-02-26T00:55:02;42.40;;;18.30;;
23506;SDS011;11930;53.076;18.250;2024-02-26T00:57:28;34.83;;;16.37;;
23506;SDS011;11930;53.076;18.250;2024-02-26T00:59:54;44.70;;;18.93;;
23506;SDS011;11930;53.076;18.250;2024-02-26T01:02:22;40.10;;;18.27;;
23506;SDS011;11930;53.076;18.250;2024-02-26T01:04:48;37.27;;;17.60;;
23506;SDS011;11930;53.076;18.250;2024-02-26T01:07:14;48.80;;;20.17;;
23506;SDS011;11930;53.076;18.250;2024-02-26T01:09:40;49.13;;;19.07;;
23506;SDS011;11930;53.076;18.250;2024-02-26T01:12:07;50.30;;;20.07;;
23506;SDS011;11930;53.076;18.250;2024-02-26T01:14:34;54.93;;;20.53;;
23506;SDS011;11930;53.076;18.250;2024-02-26T01:17:00;53.37;;;19.63;;
23506;SDS011;11930;53.076;18.250;2024-02-26T01:19:26;58.80;;;21.20;;
23506;SDS011;11930;53.076;18.250;2024-02-26T01:21:52;63.27;;;22.37;;
23506;SDS011;11930;53.076;18.250;2024-02-26T01:24:19;66.33;;;22.93;;
23506;SDS011;11930;53.076;18.250;2024-02-26T01:26:45;69.20;;;24.27;;
23506;SDS011;11930;53.076;18.250;2024-02-26T01:29:11;56.13;;;22.83;;
23506;SDS011;11930;53.076;18.250;2024-02-26T01:31:37;53.57;;;20.83;;
23506;SDS011;11930;53.076;18.250;2024-02-26T01:34:04;44.13;;;18.43;;
23506;SDS011;11930;53.076;18.250;2024-02-26T01:36:30;46.37;;;19.33;;
23506;SDS011;11930;53.076;18.250;2024-02-26T01:38:56;40.33;;;18.07;;
23506;SDS011;11930;53.076;18.250;2024-02-26T01:41:22;35.37;;;17.13;;
23506;SDS011;11930;53.076;18.250;2024-02-26T01:43:48;40.40;;;18.40;;
23506;SDS011;11930;53.076;18.250;2024-02-26T01:46:14;34.77;;;16.53;;
23506;SDS011;11930;53.076;18.250;2024-02-26T01:48:43;39.97;;;18.17;;
23506;SDS011;11930;53.076;18.250;2024-02-26T01:51:11;46.53;;;20.37;;
23506;SDS011;11930;53.076;18.250;2024-02-26T01:53:40;36.03;;;17.87;;
23506;SDS011;11930;53.076;18.250;2024-02-26T01:56:06;36.03;;;17.87;;
23506;SDS011;11930;53.076;18.250;2024-02-26T01:58:34;38.60;;;17.63;;
23506;SDS011;11930;53.076;18.250;2024-02-26T02:01:01;41.63;;;19.17;;
23506;SDS011;11930;53.076;18.250;2024-02-26T02:03:54;38.63;;;18.67;;
23506;SDS011;11930;53.076;18.250;2024-02-26T02:06:21;37.07;;;17.60;;
23506;SDS011;11930;53.076;18.250;2024-02-26T02:08:48;39.37;;;18.70;;
23506;SDS011;11930;53.076;18.250;2024-02-26T02:11:14;48.07;;;20.17;;
23506;SDS011;11930;53.076;18.250;2024-02-26T02:13:40;51.20;;;19.77;;
23506;SDS011;11930;53.076;18.250;2024-02-26T02:16:06;48.77;;;19.93;;
23506;SDS011;11930;53.076;18.250;2024-02-26T02:18:34;48.07;;;21.47;;
23506;SDS011;11930;53.076;18.250;2024-02-26T02:21:01;49.47;;;20.53;;
23506;SDS011;11930;53.076;18.250;2024-02-26T02:23:27;40.83;;;17.97;;
23506;SDS011;11930;53.076;18.250;2024-02-26T02:25:53;41.80;;;18.70;;
23506;SDS011;11930;53.076;18.250;2024-02-26T02:28:21;40.60;;;18.60;;
23506;SDS011;11930;53.076;18.250;2024-02-26T02:30:49;47.13;;;19.27;;
23506;SDS011;11930;53.076;18.250;2024-02-26T02:33:15;41.17;;;18.80;;
23506;SDS011;11930;53.076;18.250;2024-02-26T02:35:42;44.57;;;18.27;;
23506;SDS011;11930;53.076;18.250;2024-02-26T02:38:08;57.77;;;22.97;;
23506;SDS011;11930;53.076;18.250;2024-02-26T02:40:34;71.27;;;25.10;;
23506;SDS011;11930;53.076;18.250;2024-02-26T02:43:01;81.33;;;25.30;;
23506;SDS011;11930;53.076;18.250;2024-02-26T02:45:27;72.63;;;24.13;;
23506;SDS011;11930;53.076;18.250;2024-02-26T02:47:54;59.23;;;22.37;;
23506;SDS011;11930;53.076;18.250;2024-02-26T02:50:20;46.00;;;20.33;;
23506;SDS011;11930;53.076;18.250;2024-02-26T02:52:46;43.77;;;19.33;;
23506;SDS011;11930;53.076;18.250;2024-02-26T02:55:13;46.87;;;18.93;;
23506;SDS011;11930;53.076;18.250;2024-02-26T02:57:39;43.13;;;18.97;;
23506;SDS011;11930;53.076;18.250;2024-02-26T03:00:07;40.50;;;17.20;;
23506;SDS011;11930;53.076;18.250;2024-02-26T03:02:35;32.33;;;15.87;;
23506;SDS011;11930;53.076;18.250;2024-02-26T03:05:01;39.20;;;17.00;;
23506;SDS011;11930;53.076;18.250;2024-02-26T03:07:31;37.57;;;17.23;;
23506;SDS011;11930;53.076;18.250;2024-02-26T03:09:57;38.07;;;15.80;;
23506;SDS011;11930;53.076;18.250;2024-02-26T03:12:23;31.90;;;16.30;;
23506;SDS011;11930;53.076;18.250;2024-02-26T03:14:50;37.10;;;16.50;;
23506;SDS011;11930;53.076;18.250;2024-02-26T03:17:17;33.20;;;16.13;;
23506;SDS011;11930;53.076;18.250;2024-02-26T03:19:46;40.70;;;16.33;;
23506;SDS011;11930;53.076;18.250;2024-02-26T03:22:13;37.97;;;16.30;;
23506;SDS011;11930;53.076;18.250;2024-02-26T03:24:39;33.07;;;15.33;;
23506;SDS011;11930;53.076;18.250;2024-02-26T03:27:05;33.97;;;16.37;;
23506;SDS011;11930;53.076;18.250;2024-02-26T03:29:35;31.70;;;16.10;;
23506;SDS011;11930;53.076;18.250;2024-02-26T03:32:01;31.97;;;16.10;;
23506;SDS011;11930;53.076;18.250;2024-02-26T03:34:28;35.43;;;15.87;;
23506;SDS011;11930;53.076;18.250;2024-02-26T03:36:56;34.67;;;15.70;;
23506;SDS011;11930;53.076;18.250;2024-02-26T03:39:22;35.77;;;16.77;;
23506;SDS011;11930;53.076;18.250;2024-02-26T03:41:48;33.97;;;15.10;;
23506;SDS011;11930;53.076;18.250;2024-02-26T03:44:14;43.10;;;17.00;;
23506;SDS011;11930;53.076;18.250;2024-02-26T03:46:41;38.67;;;16.53;;
23506;SDS011;11930;53.076;18.250;2024-02-26T03:49:08;38.50;;;16.13;;
23506;SDS011;11930;53.076;18.250;2024-02-26T03:51:34;40.23;;;17.07;;
23506;SDS011;11930;53.076;18.250;2024-02-26T03:54:01;36.83;;;15.60;;
23506;SDS011;11930;53.076;18.250;2024-02-26T03:56:28;44.77;;;16.47;;
23506;SDS011;11930;53.076;18.250;2024-02-26T03:58:55;39.27;;;15.83;;
23506;SDS011;11930;53.076;18.250;2024-02-26T04:01:21;34.27;;;15.87;;
23506;SDS011;11930;53.076;18.250;2024-02-26T04:03:47;35.03;;;15.23;;
23506;SDS011;11930;53.076;18.250;2024-02-26T04:06:14;34.97;;;14.63;;
23506;SDS011;11930;53.076;18.250;2024-02-26T04:08:40;43.90;;;15.73;;
23506;SDS011;11930;53.076;18.250;2024-02-26T04:11:07;39.57;;;15.80;;
23506;SDS011;11930;53.076;18.250;2024-02-26T04:13:33;37.77;;;16.27;;
23506;SDS011;11930;53.076;18.250;2024-02-26T04:16:00;36.57;;;16.93;;
23506;SDS011;11930;53.076;18.250;2024-02-26T04:18:29;42.53;;;18.00;;
23506;SDS011;11930;53.076;18.250;2024-02-26T04:20:58;37.27;;;16.40;;
23506;SDS011;11930;53.076;18.250;2024-02-26T04:23:24;36.63;;;17.73;;
23506;SDS011;11930;53.076;18.250;2024-02-26T04:25:51;34.53;;;16.63;;
23506;SDS011;11930;53.076;18.250;2024-02-26T04:28:18;33.07;;;16.33;;
23506;SDS011;11930;53.076;18.250;2024-02-26T04:30:47;40.03;;;17.13;;
23506;SDS011;11930;53.076;18.250;2024-02-26T04:33:14;38.67;;;16.70;;
23506;SDS011;11930;53.076;18.250;2024-02-26T04:35:40;37.30;;;15.03;;
23506;SDS011;11930;53.076;18.250;2024-02-26T04:38:09;30.73;;;14.50;;
23506;SDS011;11930;53.076;18.250;2024-02-26T04:40:35;41.00;;;16.50;;
23506;SDS011;11930;53.076;18.250;2024-02-26T04:43:01;56.37;;;17.70;;
23506;SDS011;11930;53.076;18.250;2024-02-26T04:45:27;43.17;;;15.97;;
23506;SDS011;11930;53.076;18.250;2024-02-26T04:47:54;66.20;;;16.90;;
23506;SDS011;11930;53.076;18.250;2024-02-26T04:50:21;36.80;;;16.33;;
23506;SDS011;11930;53.076;18.250;2024-02-26T04:52:47;53.50;;;18.17;;
23506;SDS011;11930;53.076;18.250;2024-02-26T04:55:13;46.60;;;16.57;;
23506;SDS011;11930;53.076;18.250;2024-02-26T04:57:39;48.00;;;16.30;;
23506;SDS011;11930;53.076;18.250;2024-02-26T05:00:05;39.50;;;15.37;;
23506;SDS011;11930;53.076;18.250;2024-02-26T05:02:32;44.07;;;15.40;;
23506;SDS011;11930;53.076;18.250;2024-02-26T05:05:04;38.10;;;14.00;;
23506;SDS011;11930;53.076;18.250;2024-02-26T05:07:31;42.90;;;15.37;;
23506;SDS011;11930;53.076;18.250;2024-02-26T05:09:58;44.57;;;16.23;;
23506;SDS011;11930;53.076;18.250;2024-02-26T05:12:24;42.33;;;16.20;;
23506;SDS011;11930;53.076;18.250;2024-02-26T05:14:51;38.57;;;13.77;;
23506;SDS011;11930;53.076;18.250;2024-02-26T05:17:17;47.17;;;16.67;;
23506;SDS011;11930;53.076;18.250;2024-02-26T05:19:43;56.93;;;16.50;;
23506;SDS011;11930;53.076;18.250;2024-02-26T05:22:09;50.87;;;16.17;;
23506;SDS011;11930;53.076;18.250;2024-02-26T05:24:37;52.27;;;16.57;;
23506;SDS011;11930;53.076;18.250;2024-02-26T05:27:04;51.20;;;16.60;;
23506;SDS011;11930;53.076;18.250;2024-02-26T05:29:30;49.27;;;15.43;;
23506;SDS011;11930;53.076;18.250;2024-02-26T05:31:56;49.33;;;16.60;;
23506;SDS011;11930;53.076;18.250;2024-02-26T05:34:22;48.60;;;15.80;;
23506;SDS011;11930;53.076;18.250;2024-02-26T05:36:48;52.50;;;15.83;;
23506;SDS011;11930;53.076;18.250;2024-02-26T05:39:20;53.20;;;16.40;;
23506;SDS011;11930;53.076;18.250;2024-02-26T05:41:47;39.77;;;15.47;;
23506;SDS011;11930;53.076;18.250;2024-02-26T05:44:15;56.30;;;17.33;;
23506;SDS011;11930;53.076;18.250;2024-02-26T05:46:44;43.33;;;16.53;;
23506;SDS011;11930;53.076;18.250;2024-02-26T05:49:12;40.87;;;17.00;;
23506;SDS011;11930;53.076;18.250;2024-02-26T05:51:41;46.47;;;17.27;;
23506;SDS011;11930;53.076;18.250;2024-02-26T05:54:08;57.83;;;19.20;;
23506;SDS011;11930;53.076;18.250;2024-02-26T05:56:35;50.50;;;17.73;;
23506;SDS011;11930;53.076;18.250;2024-02-26T05:59:01;50.43;;;17.50;;
23506;SDS011;11930;53.076;18.250;2024-02-26T06:01:27;215.57;;;30.23;;
23506;SDS011;11930;53.076;18.250;2024-02-26T06:03:54;69.57;;;23.23;;
23506;SDS011;11930;53.076;18.250;2024-02-26T06:09:52;80.30;;;21.43;;
23506;SDS011;11930;53.076;18.250;2024-02-26T06:12:19;59.90;;;19.53;;
23506;SDS011;11930;53.076;18.250;2024-02-26T06:14:50;48.30;;;18.70;;
23506;SDS011;11930;53.076;18.250;2024-02-26T06:17:19;69.67;;;19.87;;
23506;SDS011;11930;53.076;18.250;2024-02-26T06:19:47;43.80;;;19.07;;
23506;SDS011;11930;53.076;18.250;2024-02-26T06:22:13;64.17;;;19.00;;
23506;SDS011;11930;53.076;18.250;2024-02-26T06:24:43;57.33;;;19.10;;
23506;SDS011;11930;53.076;18.250;2024-02-26T06:27:09;62.43;;;22.57;;
23506;SDS011;11930;53.076;18.250;2024-02-26T06:29:35;54.93;;;23.90;;
23506;SDS011;11930;53.076;18.250;2024-02-26T06:32:01;47.93;;;22.73;;
23506;SDS011;11930;53.076;18.250;2024-02-26T06:34:38;48.20;;;22.33;;
23506;SDS011;11930;53.076;18.250;2024-02-26T06:37:07;46.77;;;23.57;;
23506;SDS011;11930;53.076;18.250;2024-02-26T06:40:20;48.03;;;24.07;;
23506;SDS011;11930;53.076;18.250;2024-02-26T06:42:55;41.83;;;21.00;;
23506;SDS011;11930;53.076;18.250;2024-02-26T06:45:28;39.47;;;19.23;;
23506;SDS011;11930;53.076;18.250;2024-02-26T06:48:11;30.97;;;17.07;;
23506;SDS011;11930;53.076;18.250;2024-02-26T06:50:50;28.50;;;14.83;;
23506;SDS011;11930;53.076;18.250;2024-02-26T06:53:30;41.07;;;21.17;;
23506;SDS011;11930;53.076;18.250;2024-02-26T06:56:18;39.47;;;19.43;;
23506;SDS011;11930;53.076;18.250;2024-02-26T06:58:57;46.37;;;22.70;;
23506;SDS011;11930;53.076;18.250;2024-02-26T07:01:53;85.97;;;43.87;;
23506;SDS011;11930;53.076;18.250;2024-02-26T07:04:36;80.00;;;38.77;;
23506;SDS011;11930;53.076;18.250;2024-02-26T07:07:03;57.13;;;26.27;;
23506;SDS011;11930;53.076;18.250;2024-02-26T07:09:29;43.13;;;20.40;;
23506;SDS011;11930;53.076;18.250;2024-02-26T07:11:58;39.97;;;18.90;;
23506;SDS011;11930;53.076;18.250;2024-02-26T07:14:24;55.57;;;19.90;;
23506;SDS011;11930;53.076;18.250;2024-02-26T07:16:50;49.57;;;19.53;;
23506;SDS011;11930;53.076;18.250;2024-02-26T07:19:17;54.23;;;21.13;;
23506;SDS011;11930;53.076;18.250;2024-02-26T07:21:49;48.83;;;20.07;;
23506;SDS011;11930;53.076;18.250;2024-02-26T07:24:20;44.90;;;19.57;;
23506;SDS011;11930;53.076;18.250;2024-02-26T07:26:46;51.43;;;19.33;;
23506;SDS011;11930;53.076;18.250;2024-02-26T07:29:13;41.27;;;18.30;;
23506;SDS011;11930;53.076;18.250;2024-02-26T07:31:39;44.57;;;18.00;;
23506;SDS011;11930;53.076;18.250;2024-02-26T07:34:05;38.03;;;17.67;;
23506;SDS011;11930;53.076;18.250;2024-02-26T07:36:31;39.23;;;17.33;;
23506;SDS011;11930;53.076;18.250;2024-02-26T07:38:57;35.93;;;17.47;;
23506;SDS011;11930;53.076;18.250;2024-02-26T07:41:26;36.93;;;18.57;;
23506;SDS011;11930;53.076;18.250;2024-02-26T07:44:02;37.03;;;18.43;;
23506;SDS011;11930;53.076;18.250;2024-02-26T07:46:31;41.07;;;19.70;;
23506;SDS011;11930;53.076;18.250;2024-02-26T07:48:57;46.83;;;20.30;;
23506;SDS011;11930;53.076;18.250;2024-02-26T07:51:24;41.53;;;20.20;;
23506;SDS011;11930;53.076;18.250;2024-02-26T07:53:50;34.17;;;19.93;;
23506;SDS011;11930;53.076;18.250;2024-02-26T07:56:18;38.70;;;20.97;;
23506;SDS011;11930;53.076;18.250;2024-02-26T07:58:44;39.70;;;23.00;;
23506;SDS011;11930;53.076;18.250;2024-02-26T08:01:13;41.77;;;23.27;;
23506;SDS011;11930;53.076;18.250;2024-02-26T08:03:40;39.93;;;25.07;;
23506;SDS011;11930;53.076;18.250;2024-02-26T08:06:07;46.87;;;25.53;;
23506;SDS011;11930;53.076;18.250;2024-02-26T08:08:34;51.40;;;27.43;;
23506;SDS011;11930;53.076;18.250;2024-02-26T08:11:00;54.83;;;30.30;;
23506;SDS011;11930;53.076;18.250;2024-02-26T08:13:27;59.90;;;33.40;;
23506;SDS011;11930;53.076;18.250;2024-02-26T08:15:53;53.20;;;29.90;;
23506;SDS011;11930;53.076;18.250;2024-02-26T08:18:19;51.47;;;28.30;;
23506;SDS011;11930;53.076;18.250;2024-02-26T08:20:45;50.10;;;25.80;;
23506;SDS011;11930;53.076;18.250;2024-02-26T08:23:18;51.30;;;26.53;;
23506;SDS011;11930;53.076;18.250;2024-02-26T08:25:49;58.37;;;29.03;;
23506;SDS011;11930;53.076;18.250;2024-02-26T08:28:17;52.13;;;27.47;;
23506;SDS011;11930;53.076;18.250;2024-02-26T08:30:43;49.53;;;26.67;;
23506;SDS011;11930;53.076;18.250;2024-02-26T08:33:10;48.73;;;25.53;;
23506;SDS011;11930;53.076;18.250;2024-02-26T08:35:37;46.83;;;25.27;;
23506;SDS011;11930;53.076;18.250;2024-02-26T08:38:03;44.90;;;24.57;;
23506;SDS011;11930;53.076;18.250;2024-02-26T08:40:29;49.87;;;25.73;;
23506;SDS011;11930;53.076;18.250;2024-02-26T08:42:56;46.23;;;25.40;;
23506;SDS011;11930;53.076;18.250;2024-02-26T08:45:23;44.53;;;26.50;;
23506;SDS011;11930;53.076;18.250;2024-02-26T08:47:50;52.33;;;29.73;;
23506;SDS011;11930;53.076;18.250;2024-02-26T08:50:16;46.93;;;27.87;;
23506;SDS011;11930;53.076;18.250;2024-02-26T08:52:42;48.20;;;27.43;;
23506;SDS011;11930;53.076;18.250;2024-02-26T08:55:08;43.03;;;25.77;;
23506;SDS011;11930;53.076;18.250;2024-02-26T08:57:35;37.00;;;23.77;;
23506;SDS011;11930;53.076;18.250;2024-02-26T09:00:01;39.23;;;22.80;;
23506;SDS011;11930;53.076;18.250;2024-02-26T09:02:28;41.73;;;24.50;;
23506;SDS011;11930;53.076;18.250;2024-02-26T09:04:54;38.77;;;22.20;;
23506;SDS011;11930;53.076;18.250;2024-02-26T09:07:21;34.23;;;21.37;;
23506;SDS011;11930;53.076;18.250;2024-02-26T09:09:47;39.17;;;23.20;;
23506;SDS011;11930;53.076;18.250;2024-02-26T09:12:14;38.33;;;22.73;;
23506;SDS011;11930;53.076;18.250;2024-02-26T09:14:40;81.87;;;39.27;;
23506;SDS011;11930;53.076;18.250;2024-02-26T09:17:06;44.03;;;25.73;;
23506;SDS011;11930;53.076;18.250;2024-02-26T09:19:33;38.90;;;23.67;;
23506;SDS011;11930;53.076;18.250;2024-02-26T09:21:59;40.77;;;25.93;;
23506;SDS011;11930;53.076;18.250;2024-02-26T09:24:25;47.63;;;24.83;;
23506;SDS011;11930;53.076;18.250;2024-02-26T09:26:52;37.80;;;24.63;;
23506;SDS011;11930;53.076;18.250;2024-02-26T09:29:18;37.80;;;23.93;;
23506;SDS011;11930;53.076;18.250;2024-02-26T09:31:45;37.60;;;24.10;;
23506;SDS011;11930;53.076;18.250;2024-02-26T09:34:13;37.23;;;23.63;;
23506;SDS011;11930;53.076;18.250;2024-02-26T09:36:40;34.77;;;21.70;;
23506;SDS011;11930;53.076;18.250;2024-02-26T09:39:06;31.73;;;19.60;;
23506;SDS011;11930;53.076;18.250;2024-02-26T09:41:37;30.53;;;19.27;;
23506;SDS011;11930;53.076;18.250;2024-02-26T09:44:04;29.85;;;19.10;;
23506;SDS011;11930;53.076;18.250;2024-02-26T09:46:31;31.57;;;19.73;;
23506;SDS011;11930;53.076;18.250;2024-02-26T09:48:57;31.70;;;19.57;;
23506;SDS011;11930;53.076;18.250;2024-02-26T09:51:24;29.17;;;17.73;;
23506;SDS011;11930;53.076;18.250;2024-02-26T09:53:51;30.80;;;18.23;;
23506;SDS011;11930;53.076;18.250;2024-02-26T09:56:18;24.70;;;16.47;;
23506;SDS011;11930;53.076;18.250;2024-02-26T09:58:45;29.40;;;17.87;;
23506;SDS011;11930;53.076;18.250;2024-02-26T10:01:16;28.80;;;16.93;;
23506;SDS011;11930;53.076;18.250;2024-02-26T10:03:43;29.40;;;17.50;;
23506;SDS011;11930;53.076;18.250;2024-02-26T10:06:13;26.00;;;16.20;;
23506;SDS011;11930;53.076;18.250;2024-02-26T10:08:40;24.57;;;16.10;;
23506;SDS011;11930;53.076;18.250;2024-02-26T10:11:07;27.17;;;15.30;;
23506;SDS011;11930;53.076;18.250;2024-02-26T10:13:36;24.23;;;13.83;;
23506;SDS011;11930;53.076;18.250;2024-02-26T10:16:03;27.17;;;15.17;;
23506;SDS011;11930;53.076;18.250;2024-02-26T10:21:16;27.53;;;14.13;;
23506;SDS011;11930;53.076;18.250;2024-02-26T10:23:45;24.30;;;14.00;;
23506;SDS011;11930;53.076;18.250;2024-02-26T10:26:13;25.33;;;14.53;;
23506;SDS011;11930;53.076;18.250;2024-02-26T10:28:43;21.83;;;12.77;;
23506;SDS011;11930;53.076;18.250;2024-02-26T10:31:11;25.40;;;13.97;;
23506;SDS011;11930;53.076;18.250;2024-02-26T10:33:40;20.63;;;12.07;;
23506;SDS011;11930;53.076;18.250;2024-02-26T10:36:08;22.10;;;12.17;;
23506;SDS011;11930;53.076;18.250;2024-02-26T10:38:35;20.20;;;12.40;;
23506;SDS011;11930;53.076;18.250;2024-02-26T10:41:03;22.37;;;12.67;;
23506;SDS011;11930;53.076;18.250;2024-02-26T10:43:32;19.30;;;12.20;;
23506;SDS011;11930;53.076;18.250;2024-02-26T10:45:58;26.87;;;12.20;;
23506;SDS011;11930;53.076;18.250;2024-02-26T10:48:24;19.83;;;11.30;;
23506;SDS011;11930;53.076;18.250;2024-02-26T10:50:51;19.87;;;12.40;;
23506;SDS011;11930;53.076;18.250;2024-02-26T10:53:21;20.50;;;12.37;;
23506;SDS011;11930;53.076;18.250;2024-02-26T10:55:49;18.33;;;11.00;;
23506;SDS011;11930;53.076;18.250;2024-02-26T10:58:21;21.60;;;12.07;;
23506;SDS011;11930;53.076;18.250;2024-02-26T11:00:49;22.67;;;14.63;;
23506;SDS011;11930;53.076;18.250;2024-02-26T11:03:16;22.17;;;12.17;;
23506;SDS011;11930;53.076;18.250;2024-02-26T11:05:47;21.83;;;11.50;;
23506;SDS011;11930;53.076;18.250;2024-02-26T11:08:18;20.07;;;12.17;;
23506;SDS011;11930;53.076;18.250;2024-02-26T11:10:46;23.07;;;12.37;;
23506;SDS011;11930;53.076;18.250;2024-02-26T11:13:14;20.80;;;11.37;;
23506;SDS011;11930;53.076;18.250;2024-02-26T11:15:45;19.43;;;11.80;;
23506;SDS011;11930;53.076;18.250;2024-02-26T11:18:16;21.97;;;11.77;;
23506;SDS011;11930;53.076;18.250;2024-02-26T11:20:45;20.17;;;12.20;;
23506;SDS011;11930;53.076;18.250;2024-02-26T11:23:13;21.93;;;11.87;;
23506;SDS011;11930;53.076;18.250;2024-02-26T11:25:41;20.83;;;12.23;;
23506;SDS011;11930;53.076;18.250;2024-02-26T11:28:11;21.37;;;11.93;;
23506;SDS011;11930;53.076;18.250;2024-02-26T11:30:43;22.13;;;12.20;;
23506;SDS011;11930;53.076;18.250;2024-02-26T11:33:12;21.03;;;12.20;;
23506;SDS011;11930;53.076;18.250;2024-02-26T11:35:40;19.30;;;11.73;;
23506;SDS011;11930;53.076;18.250;2024-02-26T11:38:07;23.13;;;11.50;;
23506;SDS011;11930;53.076;18.250;2024-02-26T11:40:37;25.50;;;13.10;;
23506;SDS011;11930;53.076;18.250;2024-02-26T11:43:05;19.43;;;11.57;;
23506;SDS011;11930;53.076;18.250;2024-02-26T11:48:15;20.37;;;12.27;;
23506;SDS011;11930;53.076;18.250;2024-02-26T11:50:46;21.50;;;12.27;;
23506;SDS011;11930;53.076;18.250;2024-02-26T11:58:42;21.67;;;12.33;;
23506;SDS011;11930;53.076;18.250;2024-02-26T12:04:05;20.93;;;11.67;;
23506;SDS011;11930;53.076;18.250;2024-02-26T12:06:47;20.97;;;10.87;;
23506;SDS011;11930;53.076;18.250;2024-02-26T12:12:04;18.60;;;10.20;;
23506;SDS011;11930;53.076;18.250;2024-02-26T12:14:38;20.83;;;10.07;;
23506;SDS011;11930;53.076;18.250;2024-02-26T12:17:20;12.90;;;8.70;;
23506;SDS011;11930;53.076;18.250;2024-02-26T12:19:54;14.97;;;8.50;;
23506;SDS011;11930;53.076;18.250;2024-02-26T12:22:38;16.93;;;9.03;;
23506;SDS011;11930;53.076;18.250;2024-02-26T12:28:06;14.03;;;7.80;;
23506;SDS011;11930;53.076;18.250;2024-02-26T12:30:44;14.37;;;8.03;;
23506;SDS011;11930;53.076;18.250;2024-02-26T12:33:18;13.73;;;8.07;;
23506;SDS011;11930;53.076;18.250;2024-02-26T12:35:49;13.43;;;8.87;;
23506;SDS011;11930;53.076;18.250;2024-02-26T12:38:16;19.50;;;11.97;;
23506;SDS011;11930;53.076;18.250;2024-02-26T12:40:42;15.37;;;8.83;;
23506;SDS011;11930;53.076;18.250;2024-02-26T12:43:09;14.63;;;7.83;;
23506;SDS011;11930;53.076;18.250;2024-02-26T12:45:41;16.77;;;8.30;;
23506;SDS011;11930;53.076;18.250;2024-02-26T12:48:10;14.43;;;8.97;;
23506;SDS011;11930;53.076;18.250;2024-02-26T12:50:38;13.70;;;8.30;;
23506;SDS011;11930;53.076;18.250;2024-02-26T12:53:05;13.43;;;8.67;;
23506;SDS011;11930;53.076;18.250;2024-02-26T12:55:36;14.63;;;8.60;;
23506;SDS011;11930;53.076;18.250;2024-02-26T12:58:51;15.37;;;7.60;;
23506;SDS011;11930;53.076;18.250;2024-02-26T13:01:22;12.87;;;7.83;;
23506;SDS011;11930;53.076;18.250;2024-02-26T13:03:50;12.63;;;7.53;;
23506;SDS011;11930;53.076;18.250;2024-02-26T13:06:18;11.53;;;6.70;;
23506;SDS011;11930;53.076;18.250;2024-02-26T13:08:46;19.37;;;7.47;;
23506;SDS011;11930;53.076;18.250;2024-02-26T13:11:12;10.83;;;6.07;;
23506;SDS011;11930;53.076;18.250;2024-02-26T13:13:47;10.57;;;6.53;;
23506;SDS011;11930;53.076;18.250;2024-02-26T13:16:20;14.37;;;7.60;;
23506;SDS011;11930;53.076;18.250;2024-02-26T13:18:53;19.40;;;8.17;;
23506;SDS011;11930;53.076;18.250;2024-02-26T13:21:19;11.30;;;6.20;;
23506;SDS011;11930;53.076;18.250;2024-02-26T13:23:50;12.77;;;7.20;;
23506;SDS011;11930;53.076;18.250;2024-02-26T13:26:22;10.07;;;6.80;;
23506;SDS011;11930;53.076;18.250;2024-02-26T13:29:00;9.93;;;6.57;;
23506;SDS011;11930;53.076;18.250;2024-02-26T13:31:30;14.90;;;7.07;;
23506;SDS011;11930;53.076;18.250;2024-02-26T13:33:57;8.47;;;5.10;;
23506;SDS011;11930;53.076;18.250;2024-02-26T13:36:41;14.43;;;6.50;;
23506;SDS011;11930;53.076;18.250;2024-02-26T13:39:08;9.33;;;5.53;;
23506;SDS011;11930;53.076;18.250;2024-02-26T13:41:38;12.67;;;8.00;;
23506;SDS011;11930;53.076;18.250;2024-02-26T13:44:07;10.73;;;5.90;;
23506;SDS011;11930;53.076;18.250;2024-02-26T13:46:33;14.07;;;6.23;;
23506;SDS011;11930;53.076;18.250;2024-02-26T13:48:59;11.13;;;6.03;;
23506;SDS011;11930;53.076;18.250;2024-02-26T13:51:31;10.83;;;6.23;;
23506;SDS011;11930;53.076;18.250;2024-02-26T13:54:16;10.30;;;5.67;;
23506;SDS011;11930;53.076;18.250;2024-02-26T13:56:42;11.93;;;6.13;;
23506;SDS011;11930;53.076;18.250;2024-02-26T13:59:09;10.27;;;6.30;;
23506;SDS011;11930;53.076;18.250;2024-02-26T14:01:39;10.40;;;6.47;;
23506;SDS011;11930;53.076;18.250;2024-02-26T14:04:05;10.67;;;5.80;;
23506;SDS011;11930;53.076;18.250;2024-02-26T14:06:34;12.43;;;6.27;;
23506;SDS011;11930;53.076;18.250;2024-02-26T14:09:00;13.63;;;7.43;;
23506;SDS011;11930;53.076;18.250;2024-02-26T14:11:27;11.60;;;7.23;;
23506;SDS011;11930;53.076;18.250;2024-02-26T14:13:55;11.73;;;7.27;;
23506;SDS011;11930;53.076;18.250;2024-02-26T14:16:21;12.67;;;7.27;;
23506;SDS011;11930;53.076;18.250;2024-02-26T14:18:47;13.47;;;7.53;;
23506;SDS011;11930;53.076;18.250;2024-02-26T14:21:13;13.10;;;7.43;;
23506;SDS011;11930;53.076;18.250;2024-02-26T14:23:40;11.53;;;7.63;;
23506;SDS011;11930;53.076;18.250;2024-02-26T14:26:10;12.80;;;7.57;;
23506;SDS011;11930;53.076;18.250;2024-02-26T14:28:42;12.63;;;7.37;;
23506;SDS011;11930;53.076;18.250;2024-02-26T14:31:10;13.27;;;7.00;;
23506;SDS011;11930;53.076;18.250;2024-02-26T14:33:39;12.70;;;6.90;;
23506;SDS011;11930;53.076;18.250;2024-02-26T14:36:11;11.67;;;6.87;;
23506;SDS011;11930;53.076;18.250;2024-02-26T14:38:40;11.53;;;6.53;;
23506;SDS011;11930;53.076;18.250;2024-02-26T14:41:06;10.00;;;6.57;;